Terminal Aerodrome Forecast
Issued by NWS

Home | Current Version | Previous Version | Text Only | Print | Product List | Glossary On
Versions: 1 2 3 4 5 6 7 8 9 10 11 12 13 14 15 16 17 18 19 20
000
FTUS44 KTSA 011100
TAFXNA
TAF
KXNA 011120Z 0112/0212 VRB03KT 4SM BR BKN015
      TEMPO 0112/0114 P6SM NSW SCT015
     FM011500 18004KT P6SM BKN025
     FM011800 07006KT P6SM SCT025 BKN050
     FM012200 08005KT P6SM BKN250
     FM020900 00000KT 4SM BR SCT250=

USA.gov is the U.S. government's official web portal to all federal, state and local government web resources and services.